Time;durP1;ratioP1;P1;durP2;ratioP2;P2;SDS_P1;SDS_P2;PMS_P1;PMS_P2;Temp;Humidity;BMP_temperature;BMP_pressure;BME280_temperature;BME280_humidity;BME280_pressure;Samples;Min_cycle;Max_cycle;Signal;HPM_P1;HPM_P2
2021/10/28 00:25:46;;;;;;;29.00;16.00;;;;;;;13.28;100.00;101032.77;714220;1178;114808;-73
2021/10/28 00:40:48;;;;;;;13.15;9.13;;;;;;;13.28;100.00;101055.66;714162;1203;114648;-73
2021/10/28 00:55:52;;;;;;;15.23;8.58;;;;;;;13.28;100.00;101039.85;714727;1200;114152;-75
2021/10/28 01:10:56;;;;;;;14.80;8.65;;;;;;;13.22;100.00;101040.38;714239;1202;114390;-75
2021/10/28 01:26:01;;;;;;;12.33;7.75;;;;;;;13.19;100.00;101053.83;714011;1177;114676;-73
2021/10/28 01:41:04;;;;;;;34.05;16.53;;;;;;;13.24;100.00;101062.17;714391;1176;114003;-73
2021/10/28 01:56:08;;;;;;;13.45;8.18;;;;;;;13.20;100.00;101079.22;714115;1200;115139;-74
2021/10/28 02:11:10;;;;;;;22.60;10.65;;;;;;;13.17;100.00;101067.14;714009;1200;115037;-74
2021/10/28 02:26:13;;;;;;;17.55;10.40;;;;;;;13.18;100.00;101073.23;714892;1204;114864;-75
2021/10/28 02:41:15;;;;;;;23.53;12.23;;;;;;;13.20;100.00;101087.12;713972;1205;114339;-75
2021/10/28 02:56:18;;;;;;;131.15;38.63;;;;;;;13.15;100.00;101090.95;714002;1177;114318;-75
2021/10/28 03:11:20;;;;;;;110.47;39.03;;;;;;;13.16;100.00;101104.98;715334;1176;114827;-75
2021/10/28 03:26:22;;;;;;;34.68;17.65;;;;;;;13.11;100.00;101118.53;714456;1178;114610;-76
2021/10/28 04:42:16;;;;;;;20.25;10.75;;;;;;;13.04;100.00;101122.67;713984;1201;114689;-72
2021/10/28 04:57:18;;;;;;;15.18;9.58;;;;;;;13.02;100.00;101136.94;714325;1205;115707;-72
2021/10/28 05:12:21;;;;;;;16.75;10.65;;;;;;;12.95;100.00;101132.18;714369;1202;114151;-72
2021/10/28 05:27:23;;;;;;;16.93;10.48;;;;;;;12.92;100.00;101140.35;714714;1200;115204;-74
2021/10/28 05:42:38;;;;;;;22.57;11.67;;;;;;;12.94;100.00;101146.30;714322;1179;115145;-74
2021/10/28 05:57:40;;;;;;;22.80;12.68;;;;;;;12.96;100.00;101156.73;714717;1203;114999;-71
2021/10/28 06:12:48;;;;;;;24.20;11.35;;;;;;;12.99;100.00;101173.09;713230;1191;114460;-73
2021/10/28 06:27:51;;;;;;;26.48;15.68;;;;;;;13.04;100.00;101171.86;714220;1190;114431;-71
2021/10/28 06:42:54;;;;;;;32.95;16.40;;;;;;;13.13;100.00;101198.28;714293;1205;114307;-72
2021/10/28 07:02:13;;;;;;;23.43;13.68;;;;;;;13.21;100.00;101204.69;714656;1200;115561;-77
2021/10/28 07:13:23;;;;;;;18.60;12.53;;;;;;;13.30;100.00;101210.03;714899;1184;115163;-74
2021/10/28 07:59:25;;;;;;;116.17;66.03;;;;;;;13.60;100.00;101220.73;714622;1202;116076;-73
2021/10/28 08:15:13;;;;;;;38.55;24.98;;;;;;;13.67;100.00;101234.22;714461;1203;114729;-73
2021/10/28 08:29:55;;;;;;;35.10;24.63;;;;;;;13.73;100.00;101241.61;714629;1200;113972;-73
2021/10/28 08:44:59;;;;;;;24.15;16.30;;;;;;;13.69;100.00;101230.48;715077;1200;115465;-73
2021/10/28 09:31:11;;;;;;;25.93;17.93;;;;;;;13.96;100.00;101245.72;714721;1202;115239;-72
2021/10/28 09:46:32;;;;;;;21.45;15.63;;;;;;;14.01;100.00;101247.95;714644;1200;114193;-73
2021/10/28 10:01:44;;;;;;;23.50;14.43;;;;;;;14.04;100.00;101250.34;714450;1200;114770;-72
2021/10/28 10:16:51;;;;;;;44.93;23.30;;;;;;;14.17;100.00;101246.61;715280;1200;114835;-73
2021/10/28 11:03:23;;;;;;;23.63;15.47;;;;;;;14.43;100.00;101239.84;715275;1200;115855;-73
2021/10/28 14:23:43;;;;;;;63.50;33.90;;;;;;;16.59;100.00;101178.30;715277;1200;115438;-72
2021/10/28 14:39:03;;;;;;;119.93;44.13;;;;;;;15.77;100.00;101171.17;714677;1200;114659;-72
2021/10/28 15:40:17;;;;;;;52.68;29.85;;;;;;;12.37;100.00;101151.04;714906;1177;114495;-71
2021/10/28 16:26:03;;;;;;;43.03;27.40;;;;;;;11.26;100.00;101144.87;714533;1177;114822;-74
2021/10/28 16:41:06;;;;;;;52.90;28.85;;;;;;;10.89;100.00;101152.11;714901;1202;115237;-74
2021/10/28 16:56:09;;;;;;;56.00;33.47;;;;;;;10.68;100.00;101150.14;714679;1200;116402;-76
2021/10/28 17:11:13;;;;;;;53.35;27.90;;;;;;;10.36;100.00;101145.50;714606;1200;114521;-75
2021/10/28 17:26:17;;;;;;;44.03;25.95;;;;;;;10.19;100.00;101151.95;714626;1200;115051;-76
2021/10/28 17:41:20;;;;;;;44.53;25.37;;;;;;;10.05;100.00;101139.83;714416;1205;114108;-76
2021/10/28 17:56:23;;;;;;;93.70;41.68;;;;;;;9.99;100.00;101146.36;714704;1202;114443;-74
2021/10/28 18:11:25;;;;;;;55.45;30.25;;;;;;;9.93;100.00;101144.16;714609;1181;113956;-75
2021/10/28 18:26:28;;;;;;;62.95;29.65;;;;;;;9.80;100.00;101133.72;714722;1200;114478;-73
2021/10/28 18:41:32;;;;;;;51.68;26.40;;;;;;;9.73;100.00;101127.25;715079;1200;114029;-72
2021/10/28 18:56:35;;;;;;;64.58;36.40;;;;;;;9.72;100.00;101122.13;714964;1200;115192;-72
2021/10/28 19:11:37;;;;;;;122.85;60.48;;;;;;;9.76;100.00;101107.85;716097;1177;113856;-72
2021/10/28 19:26:39;;;;;;;66.97;35.50;;;;;;;9.81;100.00;101097.88;715806;1200;115268;-72
2021/10/28 19:56:54;;;;;;;163.65;58.23;;;;;;;9.62;100.00;101093.11;715146;1179;114069;-74
2021/10/28 20:27:20;;;;;;;72.73;35.15;;;;;;;9.55;100.00;101084.84;715577;1202;114414;-74
2021/10/28 20:42:22;;;;;;;63.68;31.83;;;;;;;9.57;100.00;101082.97;714716;1176;115228;-75
2021/10/28 20:57:27;;;;;;;54.20;26.85;;;;;;;9.37;100.00;101079.16;714912;1177;114225;-74
2021/10/28 21:12:29;;;;;;;55.80;27.83;;;;;;;9.18;100.00;101073.52;714703;1200;114742;-75
2021/10/28 21:27:32;;;;;;;59.60;28.73;;;;;;;9.09;100.00;101059.28;714472;1174;114494;-74
2021/10/28 21:42:35;;;;;;;56.10;25.63;;;;;;;9.08;100.00;101047.98;714486;1200;115521;-75
2021/10/28 22:28:06;;;;;;;54.10;28.48;;;;;;;8.82;100.00;101019.22;714649;1205;113986;-74
2021/10/28 22:43:14;;;;;;;53.38;26.33;;;;;;;8.77;100.00;101012.64;714208;1176;114010;-74
2021/10/28 23:28:34;;;;;;;52.00;25.40;;;;;;;8.31;100.00;100993.03;714852;1200;113561;-74
2021/10/28 23:43:37;;;;;;;62.20;29.85;;;;;;;8.19;100.00;100972.95;715157;1182;113667;-74
2021/10/28 23:58:39;;;;;;;61.30;30.87;;;;;;;8.09;100.00;100972.71;713801;1180;114008;-74
